sensor_id;sensor_type;location;lat;lon;timestamp;temperature;humidity
12704;DHT22;6416;52.182;7.650;2023-03-12T00:01:27;5.00;51.90
12704;DHT22;6416;52.182;7.650;2023-03-12T00:03:52;5.00;51.90
12704;DHT22;6416;52.182;7.650;2023-03-12T00:06:18;5.00;52.00
12704;DHT22;6416;52.182;7.650;2023-03-12T00:08:44;5.00;52.00
12704;DHT22;6416;52.182;7.650;2023-03-12T00:11:12;5.00;52.10
12704;DHT22;6416;52.182;7.650;2023-03-12T00:13:39;5.00;52.20
12704;DHT22;6416;52.182;7.650;2023-03-12T00:16:10;5.00;52.30
12704;DHT22;6416;52.182;7.650;2023-03-12T00:18:36;5.00;52.30
12704;DHT22;6416;52.182;7.650;2023-03-12T00:21:01;5.10;52.90
12704;DHT22;6416;52.182;7.650;2023-03-12T00:23:27;5.10;52.20
12704;DHT22;6416;52.182;7.650;2023-03-12T00:25:52;5.20;53.00
12704;DHT22;6416;52.182;7.650;2023-03-12T00:28:18;5.10;52.30
12704;DHT22;6416;52.182;7.650;2023-03-12T00:30:44;5.10;52.40
12704;DHT22;6416;52.182;7.650;2023-03-12T00:33:10;5.10;52.40
12704;DHT22;6416;52.182;7.650;2023-03-12T00:35:37;5.00;52.30
12704;DHT22;6416;52.182;7.650;2023-03-12T00:38:03;5.00;52.40
12704;DHT22;6416;52.182;7.650;2023-03-12T00:40:29;5.00;52.40
12704;DHT22;6416;52.182;7.650;2023-03-12T00:42:54;5.00;52.40
12704;DHT22;6416;52.182;7.650;2023-03-12T00:45:20;5.00;52.50
12704;DHT22;6416;52.182;7.650;2023-03-12T00:47:45;4.90;52.40
12704;DHT22;6416;52.182;7.650;2023-03-12T00:50:11;4.90;52.50
12704;DHT22;6416;52.182;7.650;2023-03-12T00:52:36;4.90;52.60
12704;DHT22;6416;52.182;7.650;2023-03-12T00:55:02;4.90;52.60
12704;DHT22;6416;52.182;7.650;2023-03-12T00:57:27;4.90;52.70
12704;DHT22;6416;52.182;7.650;2023-03-12T00:59:53;4.80;52.60
12704;DHT22;6416;52.182;7.650;2023-03-12T01:02:18;4.80;53.20
12704;DHT22;6416;52.182;7.650;2023-03-12T01:04:44;4.80;52.60
12704;DHT22;6416;52.182;7.650;2023-03-12T01:07:09;4.80;52.50
12704;DHT22;6416;52.182;7.650;2023-03-12T01:09:35;4.80;52.50
12704;DHT22;6416;52.182;7.650;2023-03-12T01:12:01;4.70;52.40
12704;DHT22;6416;52.182;7.650;2023-03-12T01:14:26;4.70;52.40
12704;DHT22;6416;52.182;7.650;2023-03-12T01:16:52;4.60;52.30
12704;DHT22;6416;52.182;7.650;2023-03-12T01:19:17;4.60;52.30
12704;DHT22;6416;52.182;7.650;2023-03-12T01:21:42;4.60;52.40
12704;DHT22;6416;52.182;7.650;2023-03-12T01:24:08;4.60;52.40
12704;DHT22;6416;52.182;7.650;2023-03-12T01:26:33;4.50;52.40
12704;DHT22;6416;52.182;7.650;2023-03-12T01:28:59;4.40;52.40
12704;DHT22;6416;52.182;7.650;2023-03-12T01:31:24;4.40;52.50
12704;DHT22;6416;52.182;7.650;2023-03-12T01:33:51;4.40;52.60
12704;DHT22;6416;52.182;7.650;2023-03-12T01:36:25;4.30;52.70
12704;DHT22;6416;52.182;7.650;2023-03-12T01:38:54;4.30;53.00
12704;DHT22;6416;52.182;7.650;2023-03-12T01:41:21;4.30;53.00
12704;DHT22;6416;52.182;7.650;2023-03-12T01:43:47;4.30;53.10
12704;DHT22;6416;52.182;7.650;2023-03-12T01:46:33;4.30;53.20
12704;DHT22;6416;52.182;7.650;2023-03-12T01:51:48;4.30;53.40
12704;DHT22;6416;52.182;7.650;2023-03-12T01:54:18;4.30;53.60
12704;DHT22;6416;52.182;7.650;2023-03-12T01:56:45;4.30;53.40
12704;DHT22;6416;52.182;7.650;2023-03-12T01:59:16;4.30;53.40
12704;DHT22;6416;52.182;7.650;2023-03-12T02:01:42;4.30;53.40
12704;DHT22;6416;52.182;7.650;2023-03-12T02:04:09;4.30;53.40
12704;DHT22;6416;52.182;7.650;2023-03-12T02:06:44;4.30;53.40
12704;DHT22;6416;52.182;7.650;2023-03-12T02:09:12;4.30;53.50
12704;DHT22;6416;52.182;7.650;2023-03-12T02:11:38;4.30;53.40
12704;DHT22;6416;52.182;7.650;2023-03-12T02:14:03;4.30;53.40
12704;DHT22;6416;52.182;7.650;2023-03-12T02:16:29;4.20;53.40
12704;DHT22;6416;52.182;7.650;2023-03-12T02:18:56;4.20;53.50
12704;DHT22;6416;52.182;7.650;2023-03-12T02:21:26;4.20;53.60
12704;DHT22;6416;52.182;7.650;2023-03-12T02:24:02;4.30;53.70
12704;DHT22;6416;52.182;7.650;2023-03-12T02:26:31;4.20;53.70
12704;DHT22;6416;52.182;7.650;2023-03-12T02:28:59;4.20;53.60
12704;DHT22;6416;52.182;7.650;2023-03-12T02:31:30;4.30;53.70
12704;DHT22;6416;52.182;7.650;2023-03-12T02:33:57;4.30;53.80
12704;DHT22;6416;52.182;7.650;2023-03-12T02:36:23;4.30;53.60
12704;DHT22;6416;52.182;7.650;2023-03-12T02:38:50;4.20;53.60
12704;DHT22;6416;52.182;7.650;2023-03-12T02:43:48;4.20;53.60
12704;DHT22;6416;52.182;7.650;2023-03-12T02:46:16;4.20;53.60
12704;DHT22;6416;52.182;7.650;2023-03-12T02:48:42;4.20;53.60
12704;DHT22;6416;52.182;7.650;2023-03-12T02:51:08;4.20;53.60
12704;DHT22;6416;52.182;7.650;2023-03-12T02:53:33;4.20;53.60
12704;DHT22;6416;52.182;7.650;2023-03-12T02:55:59;4.10;53.60
12704;DHT22;6416;52.182;7.650;2023-03-12T02:58:24;4.10;53.60
12704;DHT22;6416;52.182;7.650;2023-03-12T03:00:50;4.10;53.60
12704;DHT22;6416;52.182;7.650;2023-03-12T03:03:15;3.90;53.50
12704;DHT22;6416;52.182;7.650;2023-03-12T03:05:41;4.10;53.70
12704;DHT22;6416;52.182;7.650;2023-03-12T03:08:06;4.10;53.70
12704;DHT22;6416;52.182;7.650;2023-03-12T03:10:32;4.10;53.80
12704;DHT22;6416;52.182;7.650;2023-03-12T03:12:58;4.10;53.90
12704;DHT22;6416;52.182;7.650;2023-03-12T03:15:24;4.10;54.00
12704;DHT22;6416;52.182;7.650;2023-03-12T03:17:49;4.00;54.00
12704;DHT22;6416;52.182;7.650;2023-03-12T03:20:15;4.10;54.20
12704;DHT22;6416;52.182;7.650;2023-03-12T03:22:40;4.10;54.20
12704;DHT22;6416;52.182;7.650;2023-03-12T03:25:07;4.10;54.30
12704;DHT22;6416;52.182;7.650;2023-03-12T03:27:33;4.10;54.20
12704;DHT22;6416;52.182;7.650;2023-03-12T03:29:59;4.10;54.20
12704;DHT22;6416;52.182;7.650;2023-03-12T03:32:25;4.10;54.90
12704;DHT22;6416;52.182;7.650;2023-03-12T03:34:50;4.10;54.20
12704;DHT22;6416;52.182;7.650;2023-03-12T03:37:16;4.20;54.20
12704;DHT22;6416;52.182;7.650;2023-03-12T03:39:41;4.20;54.10
12704;DHT22;6416;52.182;7.650;2023-03-12T03:42:07;4.20;54.00
12704;DHT22;6416;52.182;7.650;2023-03-12T03:44:32;4.20;54.10
12704;DHT22;6416;52.182;7.650;2023-03-12T03:46:58;4.20;54.10
12704;DHT22;6416;52.182;7.650;2023-03-12T03:49:23;4.20;54.20
12704;DHT22;6416;52.182;7.650;2023-03-12T03:51:49;4.10;54.10
12704;DHT22;6416;52.182;7.650;2023-03-12T03:54:15;4.20;54.20
12704;DHT22;6416;52.182;7.650;2023-03-12T03:56:40;4.20;54.30
12704;DHT22;6416;52.182;7.650;2023-03-12T03:59:06;4.20;54.40
12704;DHT22;6416;52.182;7.650;2023-03-12T04:01:31;4.20;54.40
12704;DHT22;6416;52.182;7.650;2023-03-12T04:03:58;4.20;54.50
12704;DHT22;6416;52.182;7.650;2023-03-12T04:06:24;4.20;54.60
12704;DHT22;6416;52.182;7.650;2023-03-12T04:08:50;4.20;54.60
12704;DHT22;6416;52.182;7.650;2023-03-12T04:11:17;4.20;54.60
12704;DHT22;6416;52.182;7.650;2023-03-12T04:13:44;4.30;54.80
12704;DHT22;6416;52.182;7.650;2023-03-12T04:16:10;4.20;55.40
12704;DHT22;6416;52.182;7.650;2023-03-12T04:18:37;4.20;54.70
12704;DHT22;6416;52.182;7.650;2023-03-12T04:21:04;4.30;55.50
12704;DHT22;6416;52.182;7.650;2023-03-12T04:23:30;4.30;54.80
12704;DHT22;6416;52.182;7.650;2023-03-12T04:25:55;4.30;54.70
12704;DHT22;6416;52.182;7.650;2023-03-12T04:28:21;4.30;54.70
12704;DHT22;6416;52.182;7.650;2023-03-12T04:30:57;4.30;54.70
12704;DHT22;6416;52.182;7.650;2023-03-12T04:33:24;4.30;54.80
12704;DHT22;6416;52.182;7.650;2023-03-12T04:35:51;4.30;54.70
12704;DHT22;6416;52.182;7.650;2023-03-12T04:38:17;4.30;54.80
12704;DHT22;6416;52.182;7.650;2023-03-12T04:40:43;4.30;54.80
12704;DHT22;6416;52.182;7.650;2023-03-12T04:43:08;4.30;54.80
12704;DHT22;6416;52.182;7.650;2023-03-12T04:45:34;4.30;54.70
12704;DHT22;6416;52.182;7.650;2023-03-12T04:47:59;4.30;54.70
12704;DHT22;6416;52.182;7.650;2023-03-12T04:50:24;4.30;54.70
12704;DHT22;6416;52.182;7.650;2023-03-12T04:52:50;4.30;54.60
12704;DHT22;6416;52.182;7.650;2023-03-12T04:55:16;4.30;54.60
12704;DHT22;6416;52.182;7.650;2023-03-12T04:57:41;4.30;54.60
12704;DHT22;6416;52.182;7.650;2023-03-12T05:00:07;4.30;54.70
12704;DHT22;6416;52.182;7.650;2023-03-12T05:02:33;4.30;54.70
12704;DHT22;6416;52.182;7.650;2023-03-12T05:04:58;4.20;54.60
12704;DHT22;6416;52.182;7.650;2023-03-12T05:07:24;4.20;54.70
12704;DHT22;6416;52.182;7.650;2023-03-12T05:09:49;4.20;54.80
12704;DHT22;6416;52.182;7.650;2023-03-12T05:12:15;4.20;54.80
12704;DHT22;6416;52.182;7.650;2023-03-12T05:14:40;4.20;54.90
12704;DHT22;6416;52.182;7.650;2023-03-12T05:17:05;4.20;54.90
12704;DHT22;6416;52.182;7.650;2023-03-12T05:19:31;4.20;55.00
12704;DHT22;6416;52.182;7.650;2023-03-12T05:21:56;4.20;55.00
12704;DHT22;6416;52.182;7.650;2023-03-12T05:24:22;4.20;55.00
12704;DHT22;6416;52.182;7.650;2023-03-12T05:26:47;4.30;55.10
12704;DHT22;6416;52.182;7.650;2023-03-12T05:29:13;4.20;55.10
12704;DHT22;6416;52.182;7.650;2023-03-12T05:31:38;4.30;55.10
12704;DHT22;6416;52.182;7.650;2023-03-12T05:34:04;4.30;55.10
12704;DHT22;6416;52.182;7.650;2023-03-12T05:36:29;4.30;55.10
12704;DHT22;6416;52.182;7.650;2023-03-12T05:38:55;4.30;55.10
12704;DHT22;6416;52.182;7.650;2023-03-12T05:41:23;4.30;55.20
12704;DHT22;6416;52.182;7.650;2023-03-12T05:43:50;4.30;55.30
12704;DHT22;6416;52.182;7.650;2023-03-12T05:46:19;4.30;55.20
12704;DHT22;6416;52.182;7.650;2023-03-12T05:48:45;4.30;55.30
12704;DHT22;6416;52.182;7.650;2023-03-12T05:51:10;4.40;55.30
12704;DHT22;6416;52.182;7.650;2023-03-12T05:53:36;4.40;55.30
12704;DHT22;6416;52.182;7.650;2023-03-12T05:56:06;4.40;55.40
12704;DHT22;6416;52.182;7.650;2023-03-12T05:58:33;4.40;55.50
12704;DHT22;6416;52.182;7.650;2023-03-12T06:00:59;4.40;55.40
12704;DHT22;6416;52.182;7.650;2023-03-12T06:03:24;4.50;55.60
12704;DHT22;6416;52.182;7.650;2023-03-12T06:05:50;4.50;55.60
12704;DHT22;6416;52.182;7.650;2023-03-12T06:08:15;4.50;55.50
12704;DHT22;6416;52.182;7.650;2023-03-12T06:10:41;4.50;55.60
12704;DHT22;6416;52.182;7.650;2023-03-12T06:13:07;4.50;55.60
12704;DHT22;6416;52.182;7.650;2023-03-12T06:15:32;4.50;55.60
12704;DHT22;6416;52.182;7.650;2023-03-12T06:17:58;4.60;55.60
12704;DHT22;6416;52.182;7.650;2023-03-12T06:20:23;4.60;55.70
12704;DHT22;6416;52.182;7.650;2023-03-12T06:22:49;4.60;55.60
12704;DHT22;6416;52.182;7.650;2023-03-12T06:25:14;4.70;55.60
12704;DHT22;6416;52.182;7.650;2023-03-12T06:27:41;4.70;55.60
12704;DHT22;6416;52.182;7.650;2023-03-12T06:30:07;4.70;55.60
12704;DHT22;6416;52.182;7.650;2023-03-12T06:32:33;4.80;55.70
12704;DHT22;6416;52.182;7.650;2023-03-12T06:34:59;4.80;55.70
12704;DHT22;6416;52.182;7.650;2023-03-12T06:37:24;4.80;55.70
12704;DHT22;6416;52.182;7.650;2023-03-12T06:39:50;4.80;55.70
12704;DHT22;6416;52.182;7.650;2023-03-12T06:42:15;4.90;55.80
12704;DHT22;6416;52.182;7.650;2023-03-12T06:44:41;4.90;55.80
12704;DHT22;6416;52.182;7.650;2023-03-12T06:47:06;4.90;55.80
12704;DHT22;6416;52.182;7.650;2023-03-12T06:49:31;5.00;55.80
12704;DHT22;6416;52.182;7.650;2023-03-12T06:51:57;5.00;55.80
12704;DHT22;6416;52.182;7.650;2023-03-12T06:54:23;5.00;55.70
12704;DHT22;6416;52.182;7.650;2023-03-12T06:56:48;5.10;55.80
12704;DHT22;6416;52.182;7.650;2023-03-12T06:59:14;5.10;55.70
12704;DHT22;6416;52.182;7.650;2023-03-12T07:01:39;5.10;55.70
12704;DHT22;6416;52.182;7.650;2023-03-12T07:04:04;5.20;55.70
12704;DHT22;6416;52.182;7.650;2023-03-12T07:06:30;5.20;55.70
12704;DHT22;6416;52.182;7.650;2023-03-12T07:08:56;5.20;55.60
12704;DHT22;6416;52.182;7.650;2023-03-12T07:11:21;5.20;55.60
12704;DHT22;6416;52.182;7.650;2023-03-12T07:13:46;5.20;55.70
12704;DHT22;6416;52.182;7.650;2023-03-12T07:16:12;5.20;55.70
12704;DHT22;6416;52.182;7.650;2023-03-12T07:18:38;5.20;55.70
12704;DHT22;6416;52.182;7.650;2023-03-12T07:21:04;5.30;55.80
12704;DHT22;6416;52.182;7.650;2023-03-12T07:23:29;5.30;55.80
12704;DHT22;6416;52.182;7.650;2023-03-12T07:25:55;5.30;55.80
12704;DHT22;6416;52.182;7.650;2023-03-12T07:28:20;5.30;55.80
12704;DHT22;6416;52.182;7.650;2023-03-12T07:30:47;5.40;55.80
12704;DHT22;6416;52.182;7.650;2023-03-12T07:33:12;5.40;55.80
12704;DHT22;6416;52.182;7.650;2023-03-12T07:35:38;5.50;55.90
12704;DHT22;6416;52.182;7.650;2023-03-12T07:38:04;5.50;56.00
12704;DHT22;6416;52.182;7.650;2023-03-12T07:40:30;5.60;56.10
12704;DHT22;6416;52.182;7.650;2023-03-12T07:42:56;5.70;56.30
12704;DHT22;6416;52.182;7.650;2023-03-12T07:45:23;5.70;56.20
12704;DHT22;6416;52.182;7.650;2023-03-12T07:47:49;5.80;56.10
12704;DHT22;6416;52.182;7.650;2023-03-12T07:50:16;5.80;56.10
12704;DHT22;6416;52.182;7.650;2023-03-12T07:52:42;5.90;56.10
12704;DHT22;6416;52.182;7.650;2023-03-12T07:55:08;5.90;56.00
12704;DHT22;6416;52.182;7.650;2023-03-12T07:57:34;6.00;56.00
12704;DHT22;6416;52.182;7.650;2023-03-12T08:00:00;6.00;56.00
12704;DHT22;6416;52.182;7.650;2023-03-12T08:02:25;6.00;56.10
12704;DHT22;6416;52.182;7.650;2023-03-12T08:04:51;6.10;56.20
12704;DHT22;6416;52.182;7.650;2023-03-12T08:07:17;6.10;56.20
12704;DHT22;6416;52.182;7.650;2023-03-12T08:09:42;6.20;56.10
12704;DHT22;6416;52.182;7.650;2023-03-12T08:12:08;6.30;56.10
12704;DHT22;6416;52.182;7.650;2023-03-12T08:14:34;6.30;56.00
12704;DHT22;6416;52.182;7.650;2023-03-12T08:17:00;6.30;56.00
12704;DHT22;6416;52.182;7.650;2023-03-12T08:19:26;6.40;56.10
12704;DHT22;6416;52.182;7.650;2023-03-12T08:21:52;6.40;56.10
12704;DHT22;6416;52.182;7.650;2023-03-12T08:24:20;6.50;56.20
12704;DHT22;6416;52.182;7.650;2023-03-12T08:26:46;6.50;56.10
12704;DHT22;6416;52.182;7.650;2023-03-12T08:29:11;6.50;56.10
12704;DHT22;6416;52.182;7.650;2023-03-12T08:31:37;6.50;56.20
12704;DHT22;6416;52.182;7.650;2023-03-12T08:34:02;6.60;56.40
12704;DHT22;6416;52.182;7.650;2023-03-12T08:36:28;6.60;56.50
12704;DHT22;6416;52.182;7.650;2023-03-12T08:38:53;6.70;56.60
12704;DHT22;6416;52.182;7.650;2023-03-12T08:41:19;6.70;56.60
12704;DHT22;6416;52.182;7.650;2023-03-12T08:43:44;6.70;56.50
12704;DHT22;6416;52.182;7.650;2023-03-12T08:46:10;6.70;56.50
12704;DHT22;6416;52.182;7.650;2023-03-12T08:48:35;6.80;56.50
12704;DHT22;6416;52.182;7.650;2023-03-12T08:51:01;6.70;56.40
12704;DHT22;6416;52.182;7.650;2023-03-12T08:53:27;6.70;56.30
12704;DHT22;6416;52.182;7.650;2023-03-12T08:55:53;6.70;56.30
12704;DHT22;6416;52.182;7.650;2023-03-12T08:58:20;6.70;56.50
12704;DHT22;6416;52.182;7.650;2023-03-12T09:00:45;6.70;56.50
12704;DHT22;6416;52.182;7.650;2023-03-12T09:03:11;6.60;56.70
12704;DHT22;6416;52.182;7.650;2023-03-12T09:05:36;6.60;56.80
12704;DHT22;6416;52.182;7.650;2023-03-12T09:08:02;6.50;56.80
12704;DHT22;6416;52.182;7.650;2023-03-12T09:10:27;6.50;57.00
12704;DHT22;6416;52.182;7.650;2023-03-12T09:12:53;6.50;57.20
12704;DHT22;6416;52.182;7.650;2023-03-12T09:15:18;6.40;57.30
12704;DHT22;6416;52.182;7.650;2023-03-12T09:17:44;6.40;57.50
12704;DHT22;6416;52.182;7.650;2023-03-12T09:20:10;6.40;57.60
12704;DHT22;6416;52.182;7.650;2023-03-12T09:22:36;6.40;57.90
12704;DHT22;6416;52.182;7.650;2023-03-12T09:25:03;6.30;57.90
12704;DHT22;6416;52.182;7.650;2023-03-12T09:27:29;6.30;58.10
12704;DHT22;6416;52.182;7.650;2023-03-12T09:29:54;6.30;59.00
12704;DHT22;6416;52.182;7.650;2023-03-12T09:32:20;6.30;58.50
12704;DHT22;6416;52.182;7.650;2023-03-12T09:34:45;6.30;58.70
12704;DHT22;6416;52.182;7.650;2023-03-12T09:37:11;6.20;58.90
12704;DHT22;6416;52.182;7.650;2023-03-12T09:39:36;6.20;59.00
12704;DHT22;6416;52.182;7.650;2023-03-12T09:42:03;6.20;59.30
12704;DHT22;6416;52.182;7.650;2023-03-12T09:44:41;6.20;59.30
12704;DHT22;6416;52.182;7.650;2023-03-12T09:47:32;6.30;59.70
12704;DHT22;6416;52.182;7.650;2023-03-12T09:50:16;6.30;59.80
12704;DHT22;6416;52.182;7.650;2023-03-12T09:52:55;6.30;60.00
12704;DHT22;6416;52.182;7.650;2023-03-12T09:55:22;6.30;60.00
12704;DHT22;6416;52.182;7.650;2023-03-12T09:57:49;6.30;60.10
12704;DHT22;6416;52.182;7.650;2023-03-12T10:00:20;6.30;60.10
12704;DHT22;6416;52.182;7.650;2023-03-12T10:05:37;6.40;60.90
12704;DHT22;6416;52.182;7.650;2023-03-12T10:11:09;6.40;60.80
12704;DHT22;6416;52.182;7.650;2023-03-12T10:16:29;6.50;60.90
12704;DHT22;6416;52.182;7.650;2023-03-12T10:23:24;6.60;61.50
12704;DHT22;6416;52.182;7.650;2023-03-12T10:25:34;6.60;61.80
12704;DHT22;6416;52.182;7.650;2023-03-12T10:28:14;6.60;61.70
12704;DHT22;6416;52.182;7.650;2023-03-12T10:30:47;6.60;62.10
12704;DHT22;6416;52.182;7.650;2023-03-12T10:33:17;6.60;62.10
12704;DHT22;6416;52.182;7.650;2023-03-12T10:35:43;6.50;62.40
12704;DHT22;6416;52.182;7.650;2023-03-12T10:38:25;6.50;62.20
12704;DHT22;6416;52.182;7.650;2023-03-12T10:40:52;6.60;62.80
12704;DHT22;6416;52.182;7.650;2023-03-12T10:43:17;6.60;62.60
12704;DHT22;6416;52.182;7.650;2023-03-12T10:48:23;6.70;63.20
12704;DHT22;6416;52.182;7.650;2023-03-12T10:51:06;6.70;63.50
12704;DHT22;6416;52.182;7.650;2023-03-12T10:53:42;6.80;64.10
12704;DHT22;6416;52.182;7.650;2023-03-12T10:56:09;6.80;63.90
12704;DHT22;6416;52.182;7.650;2023-03-12T10:58:40;6.80;63.80
12704;DHT22;6416;52.182;7.650;2023-03-12T11:03:43;6.90;64.00
12704;DHT22;6416;52.182;7.650;2023-03-12T11:06:19;6.90;63.70
12704;DHT22;6416;52.182;7.650;2023-03-12T11:09:02;7.00;64.20
12704;DHT22;6416;52.182;7.650;2023-03-12T11:11:33;7.00;64.60
12704;DHT22;6416;52.182;7.650;2023-03-12T11:14:12;7.00;64.30
12704;DHT22;6416;52.182;7.650;2023-03-12T11:16:39;7.10;64.60
12704;DHT22;6416;52.182;7.650;2023-03-12T11:19:05;7.10;64.20
12704;DHT22;6416;52.182;7.650;2023-03-12T11:21:33;7.10;64.60
12704;DHT22;6416;52.182;7.650;2023-03-12T11:29:28;7.20;65.70
12704;DHT22;6416;52.182;7.650;2023-03-12T11:34:58;7.30;65.90
12704;DHT22;6416;52.182;7.650;2023-03-12T11:43:06;7.50;65.80
12704;DHT22;6416;52.182;7.650;2023-03-12T11:45:57;7.50;66.50
12704;DHT22;6416;52.182;7.650;2023-03-12T11:53:37;7.70;66.20
12704;DHT22;6416;52.182;7.650;2023-03-12T11:59:10;7.80;66.50
12704;DHT22;6416;52.182;7.650;2023-03-12T12:07:32;7.90;66.90
12704;DHT22;6416;52.182;7.650;2023-03-12T12:18:22;8.10;67.50
12704;DHT22;6416;52.182;7.650;2023-03-12T12:23:49;8.20;67.20
12704;DHT22;6416;52.182;7.650;2023-03-12T12:31:55;8.40;68.20
12704;DHT22;6416;52.182;7.650;2023-03-12T12:40:36;8.50;68.70
12704;DHT22;6416;52.182;7.650;2023-03-12T12:43:22;8.50;68.50
12704;DHT22;6416;52.182;7.650;2023-03-12T12:45:51;8.60;68.70
12704;DHT22;6416;52.182;7.650;2023-03-12T12:48:19;8.60;69.00
12704;DHT22;6416;52.182;7.650;2023-03-12T12:50:46;8.70;68.50
12704;DHT22;6416;52.182;7.650;2023-03-12T12:55:51;8.70;69.00
12704;DHT22;6416;52.182;7.650;2023-03-12T12:58:32;8.80;69.50
12704;DHT22;6416;52.182;7.650;2023-03-12T13:01:02;8.90;69.80
12704;DHT22;6416;52.182;7.650;2023-03-12T13:03:28;8.90;69.60
12704;DHT22;6416;52.182;7.650;2023-03-12T13:06:02;9.00;69.80
12704;DHT22;6416;52.182;7.650;2023-03-12T13:11:29;9.20;70.60
12704;DHT22;6416;52.182;7.650;2023-03-12T13:19:05;9.40;70.50
12704;DHT22;6416;52.182;7.650;2023-03-12T13:21:38;9.40;70.90
12704;DHT22;6416;52.182;7.650;2023-03-12T13:26:50;9.60;71.30
12704;DHT22;6416;52.182;7.650;2023-03-12T13:31:54;9.70;71.60
12704;DHT22;6416;52.182;7.650;2023-03-12T13:34:28;9.80;71.10
12704;DHT22;6416;52.182;7.650;2023-03-12T13:37:00;9.80;71.20
12704;DHT22;6416;52.182;7.650;2023-03-12T13:39:32;9.90;71.60
12704;DHT22;6416;52.182;7.650;2023-03-12T13:41:59;9.90;71.50
12704;DHT22;6416;52.182;7.650;2023-03-12T13:57:44;10.30;71.30
12704;DHT22;6416;52.182;7.650;2023-03-12T14:00:28;10.40;71.00
12704;DHT22;6416;52.182;7.650;2023-03-12T14:02:59;10.40;71.70
12704;DHT22;6416;52.182;7.650;2023-03-12T14:05:26;10.50;71.30
12704;DHT22;6416;52.182;7.650;2023-03-12T14:11:16;10.60;71.80
12704;DHT22;6416;52.182;7.650;2023-03-12T14:16:53;10.70;72.20
12704;DHT22;6416;52.182;7.650;2023-03-12T14:19:24;10.80;71.60
12704;DHT22;6416;52.182;7.650;2023-03-12T14:21:52;10.80;71.60
12704;DHT22;6416;52.182;7.650;2023-03-12T14:24:37;10.90;71.70
12704;DHT22;6416;52.182;7.650;2023-03-12T14:27:05;10.90;72.40
12704;DHT22;6416;52.182;7.650;2023-03-12T14:29:44;10.90;71.80
12704;DHT22;6416;52.182;7.650;2023-03-12T14:32:18;11.00;72.10
12704;DHT22;6416;52.182;7.650;2023-03-12T14:35:32;11.10;72.20
12704;DHT22;6416;52.182;7.650;2023-03-12T14:37:37;11.10;72.00
12704;DHT22;6416;52.182;7.650;2023-03-12T14:41:02;11.10;72.10
12704;DHT22;6416;52.182;7.650;2023-03-12T14:43:23;11.20;73.40
12704;DHT22;6416;52.182;7.650;2023-03-12T14:45:50;11.20;72.40
12704;DHT22;6416;52.182;7.650;2023-03-12T14:48:26;11.20;71.90
12704;DHT22;6416;52.182;7.650;2023-03-12T14:50:54;11.30;72.40
12704;DHT22;6416;52.182;7.650;2023-03-12T14:53:21;11.30;72.40
12704;DHT22;6416;52.182;7.650;2023-03-12T14:56:05;11.30;72.50
12704;DHT22;6416;52.182;7.650;2023-03-12T14:58:31;11.40;73.40
12704;DHT22;6416;52.182;7.650;2023-03-12T15:01:05;11.40;72.90
12704;DHT22;6416;52.182;7.650;2023-03-12T15:03:39;11.50;73.50
12704;DHT22;6416;52.182;7.650;2023-03-12T15:08:55;11.60;73.70
12704;DHT22;6416;52.182;7.650;2023-03-12T15:11:22;11.70;73.50
12704;DHT22;6416;52.182;7.650;2023-03-12T15:13:49;11.80;73.70
12704;DHT22;6416;52.182;7.650;2023-03-12T15:16:15;11.80;73.70
12704;DHT22;6416;52.182;7.650;2023-03-12T15:18:41;11.90;73.60
12704;DHT22;6416;52.182;7.650;2023-03-12T15:21:07;12.00;73.70
12704;DHT22;6416;52.182;7.650;2023-03-12T15:23:35;12.00;73.70
12704;DHT22;6416;52.182;7.650;2023-03-12T15:26:28;12.10;73.90
12704;DHT22;6416;52.182;7.650;2023-03-12T15:28:59;12.20;74.50
12704;DHT22;6416;52.182;7.650;2023-03-12T15:31:25;12.30;74.40
12704;DHT22;6416;52.182;7.650;2023-03-12T15:34:03;12.30;74.20
12704;DHT22;6416;52.182;7.650;2023-03-12T15:36:30;12.50;74.90
12704;DHT22;6416;52.182;7.650;2023-03-12T15:39:25;12.50;74.50
12704;DHT22;6416;52.182;7.650;2023-03-12T15:41:52;12.70;74.80
12704;DHT22;6416;52.182;7.650;2023-03-12T15:44:21;12.70;74.10
12704;DHT22;6416;52.182;7.650;2023-03-12T15:46:49;12.70;73.90
12704;DHT22;6416;52.182;7.650;2023-03-12T15:49:23;12.80;73.90
12704;DHT22;6416;52.182;7.650;2023-03-12T15:54:42;12.90;73.70
12704;DHT22;6416;52.182;7.650;2023-03-12T15:57:22;13.00;73.50
12704;DHT22;6416;52.182;7.650;2023-03-12T16:00:11;13.00;73.50
12704;DHT22;6416;52.182;7.650;2023-03-12T16:03:17;13.00;73.30
12704;DHT22;6416;52.182;7.650;2023-03-12T16:05:43;13.00;73.00
12704;DHT22;6416;52.182;7.650;2023-03-12T16:10:40;13.00;72.50
12704;DHT22;6416;52.182;7.650;2023-03-12T16:13:06;13.00;72.30
12704;DHT22;6416;52.182;7.650;2023-03-12T16:15:35;13.00;72.20
12704;DHT22;6416;52.182;7.650;2023-03-12T16:18:01;13.00;72.10
12704;DHT22;6416;52.182;7.650;2023-03-12T16:20:27;13.00;72.00
12704;DHT22;6416;52.182;7.650;2023-03-12T16:22:52;13.00;71.80
12704;DHT22;6416;52.182;7.650;2023-03-12T16:25:18;13.00;71.70
12704;DHT22;6416;52.182;7.650;2023-03-12T16:27:49;13.00;71.60
12704;DHT22;6416;52.182;7.650;2023-03-12T16:30:25;13.10;71.50
12704;DHT22;6416;52.182;7.650;2023-03-12T16:32:51;13.00;71.20
12704;DHT22;6416;52.182;7.650;2023-03-12T16:35:17;13.00;71.20
12704;DHT22;6416;52.182;7.650;2023-03-12T16:37:43;12.90;70.90
12704;DHT22;6416;52.182;7.650;2023-03-12T16:40:11;12.90;70.90
12704;DHT22;6416;52.182;7.650;2023-03-12T16:42:39;12.90;70.90
12704;DHT22;6416;52.182;7.650;2023-03-12T16:45:09;12.90;70.80
12704;DHT22;6416;52.182;7.650;2023-03-12T16:47:35;12.90;70.70
12704;DHT22;6416;52.182;7.650;2023-03-12T16:50:00;12.90;70.70
12704;DHT22;6416;52.182;7.650;2023-03-12T16:52:27;12.90;70.60
12704;DHT22;6416;52.182;7.650;2023-03-12T16:54:53;12.90;70.60
12704;DHT22;6416;52.182;7.650;2023-03-12T16:57:24;12.90;70.60
12704;DHT22;6416;52.182;7.650;2023-03-12T16:59:50;12.90;70.60
12704;DHT22;6416;52.182;7.650;2023-03-12T17:02:17;12.90;70.40
12704;DHT22;6416;52.182;7.650;2023-03-12T17:04:43;12.80;70.30
12704;DHT22;6416;52.182;7.650;2023-03-12T17:07:09;12.80;70.30
12704;DHT22;6416;52.182;7.650;2023-03-12T17:09:34;12.80;70.20
12704;DHT22;6416;52.182;7.650;2023-03-12T17:12:00;12.80;70.20
12704;DHT22;6416;52.182;7.650;2023-03-12T17:14:27;12.80;70.10
12704;DHT22;6416;52.182;7.650;2023-03-12T17:16:53;12.80;70.10
12704;DHT22;6416;52.182;7.650;2023-03-12T17:19:19;12.80;70.00
12704;DHT22;6416;52.182;7.650;2023-03-12T17:21:45;12.80;69.90
12704;DHT22;6416;52.182;7.650;2023-03-12T17:24:12;12.80;69.70
12704;DHT22;6416;52.182;7.650;2023-03-12T17:26:38;12.70;69.50
12704;DHT22;6416;52.182;7.650;2023-03-12T17:29:03;12.70;69.40
12704;DHT22;6416;52.182;7.650;2023-03-12T17:31:29;12.60;69.20
12704;DHT22;6416;52.182;7.650;2023-03-12T17:33:54;12.60;69.00
12704;DHT22;6416;52.182;7.650;2023-03-12T17:36:20;12.60;69.00
12704;DHT22;6416;52.182;7.650;2023-03-12T17:38:45;12.60;69.00
12704;DHT22;6416;52.182;7.650;2023-03-12T17:41:11;12.50;68.90
12704;DHT22;6416;52.182;7.650;2023-03-12T17:43:36;12.50;69.00
12704;DHT22;6416;52.182;7.650;2023-03-12T17:46:06;12.50;69.10
12704;DHT22;6416;52.182;7.650;2023-03-12T17:48:32;12.40;69.10
12704;DHT22;6416;52.182;7.650;2023-03-12T17:50:58;12.40;69.10
12704;DHT22;6416;52.182;7.650;2023-03-12T17:53:24;12.40;69.20
12704;DHT22;6416;52.182;7.650;2023-03-12T17:55:49;12.40;69.20
12704;DHT22;6416;52.182;7.650;2023-03-12T17:58:15;12.40;69.30
12704;DHT22;6416;52.182;7.650;2023-03-12T18:00:40;12.40;69.30